sensor_id;sensor_type;location;lat;lon;timestamp;temperature;humidity
47857;DHT22;33618;49.972;8.242;2023-07-31T00:00:00;18.90;92.00
47857;DHT22;33618;49.972;8.242;2023-07-31T00:02:27;18.90;91.90
47857;DHT22;33618;49.972;8.242;2023-07-31T00:04:54;18.90;91.80
47857;DHT22;33618;49.972;8.242;2023-07-31T00:07:21;19.00;91.90
47857;DHT22;33618;49.972;8.242;2023-07-31T00:09:48;19.00;91.70
47857;DHT22;33618;49.972;8.242;2023-07-31T00:12:14;19.00;91.50
47857;DHT22;33618;49.972;8.242;2023-07-31T00:14:41;19.00;91.70
47857;DHT22;33618;49.972;8.242;2023-07-31T00:17:08;18.90;91.80
47857;DHT22;33618;49.972;8.242;2023-07-31T00:19:35;18.90;92.00
47857;DHT22;33618;49.972;8.242;2023-07-31T00:22:02;18.90;92.00
47857;DHT22;33618;49.972;8.242;2023-07-31T00:35:45;18.90;91.90
47857;DHT22;33618;49.972;8.242;2023-07-31T00:38:30;18.80;92.40
47857;DHT22;33618;49.972;8.242;2023-07-31T00:40:57;18.80;93.00
47857;DHT22;33618;49.972;8.242;2023-07-31T00:43:24;18.80;92.90
47857;DHT22;33618;49.972;8.242;2023-07-31T00:45:51;18.80;92.80
47857;DHT22;33618;49.972;8.242;2023-07-31T00:48:18;18.80;92.60
47857;DHT22;33618;49.972;8.242;2023-07-31T00:50:45;18.80;92.80
47857;DHT22;33618;49.972;8.242;2023-07-31T00:53:13;18.80;93.00
47857;DHT22;33618;49.972;8.242;2023-07-31T00:55:40;18.70;93.10
47857;DHT22;33618;49.972;8.242;2023-07-31T00:58:07;18.70;93.20
47857;DHT22;33618;49.972;8.242;2023-07-31T01:00:34;18.70;92.90
47857;DHT22;33618;49.972;8.242;2023-07-31T01:03:01;18.70;92.90
47857;DHT22;33618;49.972;8.242;2023-07-31T01:05:36;18.70;92.80
47857;DHT22;33618;49.972;8.242;2023-07-31T01:08:15;18.70;92.90
47857;DHT22;33618;49.972;8.242;2023-07-31T01:10:58;18.70;92.60
47857;DHT22;33618;49.972;8.242;2023-07-31T01:13:28;18.60;92.90
47857;DHT22;33618;49.972;8.242;2023-07-31T01:15:55;18.60;92.90
47857;DHT22;33618;49.972;8.242;2023-07-31T01:18:21;18.70;92.90
47857;DHT22;33618;49.972;8.242;2023-07-31T01:20:57;18.60;93.10
47857;DHT22;33618;49.972;8.242;2023-07-31T01:26:19;18.60;92.50
47857;DHT22;33618;49.972;8.242;2023-07-31T01:28:56;18.70;92.60
47857;DHT22;33618;49.972;8.242;2023-07-31T01:31:29;18.70;92.50
47857;DHT22;33618;49.972;8.242;2023-07-31T01:34:00;18.70;92.50
47857;DHT22;33618;49.972;8.242;2023-07-31T01:36:30;18.70;92.40
47857;DHT22;33618;49.972;8.242;2023-07-31T01:38:58;18.70;92.50
47857;DHT22;33618;49.972;8.242;2023-07-31T01:41:26;18.70;92.60
47857;DHT22;33618;49.972;8.242;2023-07-31T01:43:53;18.70;92.70
47857;DHT22;33618;49.972;8.242;2023-07-31T01:46:20;18.70;92.80
47857;DHT22;33618;49.972;8.242;2023-07-31T01:48:47;18.60;92.90
47857;DHT22;33618;49.972;8.242;2023-07-31T01:51:13;18.60;92.90
47857;DHT22;33618;49.972;8.242;2023-07-31T01:53:40;18.60;92.80
47857;DHT22;33618;49.972;8.242;2023-07-31T01:56:07;18.60;92.90
47857;DHT22;33618;49.972;8.242;2023-07-31T01:58:34;18.60;93.00
47857;DHT22;33618;49.972;8.242;2023-07-31T02:01:01;18.60;92.90
47857;DHT22;33618;49.972;8.242;2023-07-31T02:03:27;18.60;92.90
47857;DHT22;33618;49.972;8.242;2023-07-31T02:05:54;18.60;93.20
47857;DHT22;33618;49.972;8.242;2023-07-31T02:08:21;18.50;92.90
47857;DHT22;33618;49.972;8.242;2023-07-31T02:10:48;18.50;93.00
47857;DHT22;33618;49.972;8.242;2023-07-31T02:13:15;18.50;93.30
47857;DHT22;33618;49.972;8.242;2023-07-31T02:15:42;18.50;93.30
47857;DHT22;33618;49.972;8.242;2023-07-31T02:18:09;18.40;93.30
47857;DHT22;33618;49.972;8.242;2023-07-31T02:20:36;18.50;93.40
47857;DHT22;33618;49.972;8.242;2023-07-31T02:23:02;18.50;93.40
47857;DHT22;33618;49.972;8.242;2023-07-31T02:25:29;18.40;93.40
47857;DHT22;33618;49.972;8.242;2023-07-31T02:27:56;18.50;93.40
47857;DHT22;33618;49.972;8.242;2023-07-31T02:30:23;18.50;93.40
47857;DHT22;33618;49.972;8.242;2023-07-31T02:32:50;18.60;93.30
47857;DHT22;33618;49.972;8.242;2023-07-31T02:35:17;18.60;93.20
47857;DHT22;33618;49.972;8.242;2023-07-31T02:37:45;18.60;93.20
47857;DHT22;33618;49.972;8.242;2023-07-31T02:40:12;18.50;93.60
47857;DHT22;33618;49.972;8.242;2023-07-31T02:42:39;18.60;93.50
47857;DHT22;33618;49.972;8.242;2023-07-31T02:45:06;18.50;93.50
47857;DHT22;33618;49.972;8.242;2023-07-31T02:47:33;18.50;93.80
47857;DHT22;33618;49.972;8.242;2023-07-31T02:50:01;18.50;94.00
47857;DHT22;33618;49.972;8.242;2023-07-31T02:52:28;18.60;93.90
47857;DHT22;33618;49.972;8.242;2023-07-31T02:54:54;18.60;94.30
47857;DHT22;33618;49.972;8.242;2023-07-31T02:57:21;18.60;94.10
47857;DHT22;33618;49.972;8.242;2023-07-31T02:59:48;18.60;94.20
47857;DHT22;33618;49.972;8.242;2023-07-31T03:02:15;18.60;94.20
47857;DHT22;33618;49.972;8.242;2023-07-31T03:04:42;18.60;94.20
47857;DHT22;33618;49.972;8.242;2023-07-31T03:07:09;18.60;94.20
47857;DHT22;33618;49.972;8.242;2023-07-31T03:09:36;18.60;94.30
47857;DHT22;33618;49.972;8.242;2023-07-31T03:12:03;18.60;94.50
47857;DHT22;33618;49.972;8.242;2023-07-31T03:14:30;18.60;94.40
47857;DHT22;33618;49.972;8.242;2023-07-31T03:16:57;18.50;94.30
47857;DHT22;33618;49.972;8.242;2023-07-31T03:19:24;18.60;94.40
47857;DHT22;33618;49.972;8.242;2023-07-31T03:21:50;18.50;94.50
47857;DHT22;33618;49.972;8.242;2023-07-31T03:24:17;18.50;94.20
47857;DHT22;33618;49.972;8.242;2023-07-31T03:26:44;18.60;94.10
47857;DHT22;33618;49.972;8.242;2023-07-31T03:29:11;18.60;94.20
47857;DHT22;33618;49.972;8.242;2023-07-31T03:31:37;18.50;94.30
47857;DHT22;33618;49.972;8.242;2023-07-31T03:34:04;18.50;94.40
47857;DHT22;33618;49.972;8.242;2023-07-31T03:36:31;18.50;94.30
47857;DHT22;33618;49.972;8.242;2023-07-31T03:38:58;18.40;95.30
47857;DHT22;33618;49.972;8.242;2023-07-31T03:41:25;18.40;97.00
47857;DHT22;33618;49.972;8.242;2023-07-31T03:43:52;18.30;97.80
47857;DHT22;33618;49.972;8.242;2023-07-31T03:46:19;18.10;98.30
47857;DHT22;33618;49.972;8.242;2023-07-31T03:48:46;18.00;99.20
47857;DHT22;33618;49.972;8.242;2023-07-31T03:51:13;17.90;99.90
47857;DHT22;33618;49.972;8.242;2023-07-31T03:53:39;17.80;99.90
47857;DHT22;33618;49.972;8.242;2023-07-31T03:56:06;17.70;99.90
47857;DHT22;33618;49.972;8.242;2023-07-31T03:58:33;17.70;99.90
47857;DHT22;33618;49.972;8.242;2023-07-31T04:01:01;17.70;99.90
47857;DHT22;33618;49.972;8.242;2023-07-31T04:03:28;17.70;99.90
47857;DHT22;33618;49.972;8.242;2023-07-31T04:05:55;17.80;99.90
47857;DHT22;33618;49.972;8.242;2023-07-31T04:08:23;17.70;99.90
47857;DHT22;33618;49.972;8.242;2023-07-31T04:10:50;17.70;99.90
47857;DHT22;33618;49.972;8.242;2023-07-31T04:13:17;17.60;99.90
47857;DHT22;33618;49.972;8.242;2023-07-31T04:15:51;17.60;99.90
47857;DHT22;33618;49.972;8.242;2023-07-31T04:18:18;17.70;99.90
47857;DHT22;33618;49.972;8.242;2023-07-31T04:20:45;17.70;99.90
47857;DHT22;33618;49.972;8.242;2023-07-31T04:23:11;17.70;99.90
47857;DHT22;33618;49.972;8.242;2023-07-31T04:25:38;17.70;99.90
47857;DHT22;33618;49.972;8.242;2023-07-31T04:28:05;17.80;99.70
47857;DHT22;33618;49.972;8.242;2023-07-31T04:30:32;17.80;99.60
47857;DHT22;33618;49.972;8.242;2023-07-31T04:32:59;17.80;99.20
47857;DHT22;33618;49.972;8.242;2023-07-31T04:35:27;17.90;99.30
47857;DHT22;33618;49.972;8.242;2023-07-31T04:37:53;18.00;99.00
47857;DHT22;33618;49.972;8.242;2023-07-31T04:40:21;18.00;98.60
47857;DHT22;33618;49.972;8.242;2023-07-31T04:42:48;17.90;98.70
47857;DHT22;33618;49.972;8.242;2023-07-31T04:45:15;18.00;98.60
47857;DHT22;33618;49.972;8.242;2023-07-31T05:05:26;18.00;99.90
47857;DHT22;33618;49.972;8.242;2023-07-31T05:07:55;18.00;99.90
47857;DHT22;33618;49.972;8.242;2023-07-31T05:10:22;17.90;99.90
47857;DHT22;33618;49.972;8.242;2023-07-31T05:12:48;18.00;99.90
47857;DHT22;33618;49.972;8.242;2023-07-31T05:15:15;18.00;99.50
47857;DHT22;33618;49.972;8.242;2023-07-31T05:17:42;18.10;99.00
47857;DHT22;33618;49.972;8.242;2023-07-31T05:20:09;18.10;98.50
47857;DHT22;33618;49.972;8.242;2023-07-31T05:22:37;18.10;98.20
47857;DHT22;33618;49.972;8.242;2023-07-31T05:25:04;18.10;98.20
47857;DHT22;33618;49.972;8.242;2023-07-31T05:27:31;18.10;98.10
47857;DHT22;33618;49.972;8.242;2023-07-31T05:29:58;18.10;98.40
47857;DHT22;33618;49.972;8.242;2023-07-31T05:32:25;18.20;98.50
47857;DHT22;33618;49.972;8.242;2023-07-31T05:34:52;18.20;98.00
47857;DHT22;33618;49.972;8.242;2023-07-31T05:37:20;18.20;98.20
47857;DHT22;33618;49.972;8.242;2023-07-31T05:39:47;18.20;97.90
47857;DHT22;33618;49.972;8.242;2023-07-31T05:42:13;18.20;97.60
47857;DHT22;33618;49.972;8.242;2023-07-31T05:44:40;18.20;97.70
47857;DHT22;33618;49.972;8.242;2023-07-31T05:47:07;18.20;97.80
47857;DHT22;33618;49.972;8.242;2023-07-31T05:49:34;18.30;97.70
47857;DHT22;33618;49.972;8.242;2023-07-31T05:52:01;18.30;97.40
47857;DHT22;33618;49.972;8.242;2023-07-31T05:54:28;18.30;97.30
47857;DHT22;33618;49.972;8.242;2023-07-31T05:56:55;18.30;97.20
47857;DHT22;33618;49.972;8.242;2023-07-31T05:59:22;18.40;97.40
47857;DHT22;33618;49.972;8.242;2023-07-31T06:01:49;18.50;97.10
47857;DHT22;33618;49.972;8.242;2023-07-31T06:04:16;18.50;97.10
47857;DHT22;33618;49.972;8.242;2023-07-31T06:06:43;18.60;97.10
47857;DHT22;33618;49.972;8.242;2023-07-31T06:09:10;18.60;97.30
47857;DHT22;33618;49.972;8.242;2023-07-31T06:11:37;18.70;96.60
47857;DHT22;33618;49.972;8.242;2023-07-31T06:14:03;18.70;96.60
47857;DHT22;33618;49.972;8.242;2023-07-31T06:16:30;18.90;96.80
47857;DHT22;33618;49.972;8.242;2023-07-31T06:18:57;19.00;95.90
47857;DHT22;33618;49.972;8.242;2023-07-31T06:21:24;19.10;95.80
47857;DHT22;33618;49.972;8.242;2023-07-31T06:23:51;19.00;95.20
47857;DHT22;33618;49.972;8.242;2023-07-31T06:26:18;19.00;95.50
47857;DHT22;33618;49.972;8.242;2023-07-31T06:28:45;19.00;95.60
47857;DHT22;33618;49.972;8.242;2023-07-31T06:31:12;19.00;95.50
47857;DHT22;33618;49.972;8.242;2023-07-31T06:33:38;18.90;96.00
47857;DHT22;33618;49.972;8.242;2023-07-31T06:36:05;18.90;96.10
47857;DHT22;33618;49.972;8.242;2023-07-31T06:38:33;18.90;96.20
47857;DHT22;33618;49.972;8.242;2023-07-31T06:40:59;19.00;95.90
47857;DHT22;33618;49.972;8.242;2023-07-31T06:43:26;19.10;95.80
47857;DHT22;33618;49.972;8.242;2023-07-31T06:45:55;19.20;95.40
47857;DHT22;33618;49.972;8.242;2023-07-31T06:48:22;19.50;95.20
47857;DHT22;33618;49.972;8.242;2023-07-31T06:50:49;19.50;94.90
47857;DHT22;33618;49.972;8.242;2023-07-31T06:53:15;19.60;94.60
47857;DHT22;33618;49.972;8.242;2023-07-31T06:55:42;19.70;94.20
47857;DHT22;33618;49.972;8.242;2023-07-31T06:58:09;19.70;94.10
47857;DHT22;33618;49.972;8.242;2023-07-31T07:00:36;19.80;94.10
47857;DHT22;33618;49.972;8.242;2023-07-31T07:03:03;19.60;94.20
47857;DHT22;33618;49.972;8.242;2023-07-31T07:05:30;19.50;94.60
47857;DHT22;33618;49.972;8.242;2023-07-31T07:07:56;19.50;94.60
47857;DHT22;33618;49.972;8.242;2023-07-31T07:10:23;19.70;94.70
47857;DHT22;33618;49.972;8.242;2023-07-31T07:12:50;19.90;94.50
47857;DHT22;33618;49.972;8.242;2023-07-31T07:15:17;20.20;94.10
47857;DHT22;33618;49.972;8.242;2023-07-31T07:17:44;20.50;93.50
47857;DHT22;33618;49.972;8.242;2023-07-31T07:20:11;20.70;92.90
47857;DHT22;33618;49.972;8.242;2023-07-31T07:22:38;20.80;92.40
47857;DHT22;33618;49.972;8.242;2023-07-31T07:25:05;20.80;91.90
47857;DHT22;33618;49.972;8.242;2023-07-31T07:27:33;20.70;92.20
47857;DHT22;33618;49.972;8.242;2023-07-31T07:30:01;20.70;92.20
47857;DHT22;33618;49.972;8.242;2023-07-31T07:32:28;20.70;92.30
47857;DHT22;33618;49.972;8.242;2023-07-31T07:34:55;20.70;92.00
47857;DHT22;33618;49.972;8.242;2023-07-31T07:37:22;20.50;92.30
47857;DHT22;33618;49.972;8.242;2023-07-31T07:39:49;20.50;92.60
47857;DHT22;33618;49.972;8.242;2023-07-31T07:42:16;20.40;92.80
47857;DHT22;33618;49.972;8.242;2023-07-31T07:44:43;20.30;93.10
47857;DHT22;33618;49.972;8.242;2023-07-31T07:47:09;20.40;93.20
47857;DHT22;33618;49.972;8.242;2023-07-31T07:49:36;20.50;92.60
47857;DHT22;33618;49.972;8.242;2023-07-31T07:52:04;20.50;92.70
47857;DHT22;33618;49.972;8.242;2023-07-31T07:54:31;20.50;92.70
47857;DHT22;33618;49.972;8.242;2023-07-31T07:56:58;20.50;92.80
47857;DHT22;33618;49.972;8.242;2023-07-31T07:59:25;20.60;92.60
47857;DHT22;33618;49.972;8.242;2023-07-31T08:01:52;20.50;92.70
47857;DHT22;33618;49.972;8.242;2023-07-31T08:04:20;20.60;92.80
47857;DHT22;33618;49.972;8.242;2023-07-31T08:06:46;20.50;93.10
47857;DHT22;33618;49.972;8.242;2023-07-31T08:09:13;20.50;92.80
47857;DHT22;33618;49.972;8.242;2023-07-31T08:11:40;20.50;93.00
47857;DHT22;33618;49.972;8.242;2023-07-31T08:14:07;20.50;93.10
47857;DHT22;33618;49.972;8.242;2023-07-31T08:16:34;20.70;92.70
47857;DHT22;33618;49.972;8.242;2023-07-31T08:19:01;20.70;92.70
47857;DHT22;33618;49.972;8.242;2023-07-31T08:21:28;20.70;92.60
47857;DHT22;33618;49.972;8.242;2023-07-31T08:23:55;20.70;92.60
47857;DHT22;33618;49.972;8.242;2023-07-31T08:26:22;20.70;92.60
47857;DHT22;33618;49.972;8.242;2023-07-31T08:28:49;20.70;92.50
47857;DHT22;33618;49.972;8.242;2023-07-31T08:31:16;20.60;92.50
47857;DHT22;33618;49.972;8.242;2023-07-31T08:33:43;20.70;92.90
47857;DHT22;33618;49.972;8.242;2023-07-31T08:36:09;20.80;92.60
47857;DHT22;33618;49.972;8.242;2023-07-31T08:38:36;21.00;92.30
47857;DHT22;33618;49.972;8.242;2023-07-31T08:41:03;21.00;92.40
47857;DHT22;33618;49.972;8.242;2023-07-31T08:43:32;21.00;92.30
47857;DHT22;33618;49.972;8.242;2023-07-31T09:07:26;20.50;93.20
47857;DHT22;33618;49.972;8.242;2023-07-31T09:09:54;20.70;92.90
47857;DHT22;33618;49.972;8.242;2023-07-31T09:12:21;20.90;91.80
47857;DHT22;33618;49.972;8.242;2023-07-31T09:14:48;21.00;91.70
47857;DHT22;33618;49.972;8.242;2023-07-31T09:17:15;21.10;91.30
47857;DHT22;33618;49.972;8.242;2023-07-31T09:19:41;21.20;91.00
47857;DHT22;33618;49.972;8.242;2023-07-31T09:22:08;21.20;91.20
47857;DHT22;33618;49.972;8.242;2023-07-31T09:24:35;21.20;90.90
47857;DHT22;33618;49.972;8.242;2023-07-31T09:27:03;21.20;90.80
47857;DHT22;33618;49.972;8.242;2023-07-31T09:29:30;21.20;90.70
47857;DHT22;33618;49.972;8.242;2023-07-31T09:31:56;21.30;90.70
47857;DHT22;33618;49.972;8.242;2023-07-31T09:34:30;21.30;90.70
47857;DHT22;33618;49.972;8.242;2023-07-31T09:37:01;21.50;90.60
47857;DHT22;33618;49.972;8.242;2023-07-31T09:39:29;21.50;90.40
47857;DHT22;33618;49.972;8.242;2023-07-31T09:41:56;21.60;90.20
47857;DHT22;33618;49.972;8.242;2023-07-31T09:44:40;21.60;89.90
47857;DHT22;33618;49.972;8.242;2023-07-31T09:47:24;21.50;89.80
47857;DHT22;33618;49.972;8.242;2023-07-31T09:49:52;21.60;89.40
47857;DHT22;33618;49.972;8.242;2023-07-31T09:52:19;21.60;89.50
47857;DHT22;33618;49.972;8.242;2023-07-31T09:54:46;21.70;89.80
47857;DHT22;33618;49.972;8.242;2023-07-31T09:57:14;21.80;89.30
47857;DHT22;33618;49.972;8.242;2023-07-31T09:59:45;21.70;89.10
47857;DHT22;33618;49.972;8.242;2023-07-31T10:02:15;21.70;88.70
47857;DHT22;33618;49.972;8.242;2023-07-31T10:04:43;21.80;88.90
47857;DHT22;33618;49.972;8.242;2023-07-31T10:07:13;21.90;88.50
47857;DHT22;33618;49.972;8.242;2023-07-31T10:09:41;22.00;88.40
47857;DHT22;33618;49.972;8.242;2023-07-31T10:12:09;22.20;88.10
47857;DHT22;33618;49.972;8.242;2023-07-31T10:14:39;22.30;87.30
47857;DHT22;33618;49.972;8.242;2023-07-31T10:17:08;22.40;87.00
47857;DHT22;33618;49.972;8.242;2023-07-31T10:19:35;22.30;86.40
47857;DHT22;33618;49.972;8.242;2023-07-31T10:22:03;22.30;86.40
47857;DHT22;33618;49.972;8.242;2023-07-31T10:24:31;22.30;86.70
47857;DHT22;33618;49.972;8.242;2023-07-31T10:27:00;22.40;86.70
47857;DHT22;33618;49.972;8.242;2023-07-31T10:29:29;22.50;86.40
47857;DHT22;33618;49.972;8.242;2023-07-31T10:31:58;22.60;86.50
47857;DHT22;33618;49.972;8.242;2023-07-31T10:34:26;22.70;86.30
47857;DHT22;33618;49.972;8.242;2023-07-31T10:37:25;22.80;86.00
47857;DHT22;33618;49.972;8.242;2023-07-31T10:40:00;22.80;84.90
47857;DHT22;33618;49.972;8.242;2023-07-31T10:42:38;22.60;85.30
47857;DHT22;33618;49.972;8.242;2023-07-31T10:45:09;22.60;85.10
47857;DHT22;33618;49.972;8.242;2023-07-31T10:47:46;22.60;85.10
47857;DHT22;33618;49.972;8.242;2023-07-31T10:50:20;22.70;85.10
47857;DHT22;33618;49.972;8.242;2023-07-31T10:52:48;22.70;85.20
47857;DHT22;33618;49.972;8.242;2023-07-31T10:55:16;22.90;85.20
47857;DHT22;33618;49.972;8.242;2023-07-31T10:57:49;23.20;85.20
47857;DHT22;33618;49.972;8.242;2023-07-31T11:03:17;23.90;83.30
47857;DHT22;33618;49.972;8.242;2023-07-31T11:08:29;23.80;83.40
47857;DHT22;33618;49.972;8.242;2023-07-31T11:16:01;24.00;82.40
47857;DHT22;33618;49.972;8.242;2023-07-31T11:18:27;23.90;82.50
47857;DHT22;33618;49.972;8.242;2023-07-31T11:20:54;23.90;82.10
47857;DHT22;33618;49.972;8.242;2023-07-31T11:23:22;23.70;82.50
47857;DHT22;33618;49.972;8.242;2023-07-31T11:25:50;23.70;82.60
47857;DHT22;33618;49.972;8.242;2023-07-31T11:28:18;23.70;82.90
47857;DHT22;33618;49.972;8.242;2023-07-31T11:30:46;23.80;82.10
47857;DHT22;33618;49.972;8.242;2023-07-31T11:33:14;23.80;82.30
47857;DHT22;33618;49.972;8.242;2023-07-31T11:35:48;23.70;81.90
47857;DHT22;33618;49.972;8.242;2023-07-31T11:38:34;24.10;81.50
47857;DHT22;33618;49.972;8.242;2023-07-31T11:41:03;24.60;81.20
47857;DHT22;33618;49.972;8.242;2023-07-31T11:43:33;24.80;80.90
47857;DHT22;33618;49.972;8.242;2023-07-31T11:46:03;25.00;80.60
47857;DHT22;33618;49.972;8.242;2023-07-31T11:48:35;25.10;80.10
47857;DHT22;33618;49.972;8.242;2023-07-31T11:51:09;25.00;79.70
47857;DHT22;33618;49.972;8.242;2023-07-31T11:53:51;25.30;79.50
47857;DHT22;33618;49.972;8.242;2023-07-31T11:56:19;25.60;79.00
47857;DHT22;33618;49.972;8.242;2023-07-31T11:58:53;25.80;78.80
47857;DHT22;33618;49.972;8.242;2023-07-31T12:01:21;26.20;78.50
47857;DHT22;33618;49.972;8.242;2023-07-31T12:03:50;25.50;78.20
47857;DHT22;33618;49.972;8.242;2023-07-31T12:06:18;25.70;78.30
47857;DHT22;33618;49.972;8.242;2023-07-31T12:08:48;25.40;78.30
47857;DHT22;33618;49.972;8.242;2023-07-31T12:11:15;25.20;78.00
47857;DHT22;33618;49.972;8.242;2023-07-31T12:13:44;24.80;78.50
47857;DHT22;33618;49.972;8.242;2023-07-31T12:16:11;24.70;78.60
47857;DHT22;33618;49.972;8.242;2023-07-31T12:18:39;24.60;79.00
47857;DHT22;33618;49.972;8.242;2023-07-31T12:21:07;24.50;79.20
47857;DHT22;33618;49.972;8.242;2023-07-31T12:23:36;24.50;79.40
47857;DHT22;33618;49.972;8.242;2023-07-31T12:26:14;24.40;79.40
47857;DHT22;33618;49.972;8.242;2023-07-31T12:28:43;24.70;79.20
47857;DHT22;33618;49.972;8.242;2023-07-31T12:31:12;25.10;78.90
47857;DHT22;33618;49.972;8.242;2023-07-31T12:33:40;25.60;78.70
47857;DHT22;33618;49.972;8.242;2023-07-31T12:36:20;25.70;78.00
47857;DHT22;33618;49.972;8.242;2023-07-31T12:38:48;26.10;77.60
47857;DHT22;33618;49.972;8.242;2023-07-31T12:41:16;26.20;77.40
47857;DHT22;33618;49.972;8.242;2023-07-31T12:43:44;26.20;77.10
47857;DHT22;33618;49.972;8.242;2023-07-31T12:46:11;26.20;77.50
47857;DHT22;33618;49.972;8.242;2023-07-31T12:48:42;26.50;76.80
47857;DHT22;33618;49.972;8.242;2023-07-31T12:51:09;26.40;76.90
47857;DHT22;33618;49.972;8.242;2023-07-31T12:53:36;26.60;76.80
47857;DHT22;33618;49.972;8.242;2023-07-31T12:56:03;26.60;76.10
47857;DHT22;33618;49.972;8.242;2023-07-31T12:58:30;26.40;76.30
47857;DHT22;33618;49.972;8.242;2023-07-31T13:00:57;26.40;77.10
47857;DHT22;33618;49.972;8.242;2023-07-31T13:03:24;26.50;76.70
47857;DHT22;33618;49.972;8.242;2023-07-31T13:05:51;26.70;77.00
47857;DHT22;33618;49.972;8.242;2023-07-31T13:08:19;26.70;76.20
47857;DHT22;33618;49.972;8.242;2023-07-31T13:10:46;26.10;76.70
47857;DHT22;33618;49.972;8.242;2023-07-31T13:13:13;26.00;77.30
47857;DHT22;33618;49.972;8.242;2023-07-31T13:15:40;26.00;77.10
47857;DHT22;33618;49.972;8.242;2023-07-31T13:18:07;25.90;77.60
47857;DHT22;33618;49.972;8.242;2023-07-31T13:20:34;25.80;77.50
47857;DHT22;33618;49.972;8.242;2023-07-31T13:23:01;25.50;77.50
47857;DHT22;33618;49.972;8.242;2023-07-31T13:25:28;25.20;77.90
47857;DHT22;33618;49.972;8.242;2023-07-31T13:27:55;25.10;78.50
47857;DHT22;33618;49.972;8.242;2023-07-31T13:30:23;25.20;78.80
47857;DHT22;33618;49.972;8.242;2023-07-31T13:32:49;25.00;78.30
47857;DHT22;33618;49.972;8.242;2023-07-31T13:35:16;24.80;78.70
47857;DHT22;33618;49.972;8.242;2023-07-31T13:37:43;24.80;78.90
47857;DHT22;33618;49.972;8.242;2023-07-31T13:40:10;24.60;79.10
47857;DHT22;33618;49.972;8.242;2023-07-31T13:42:37;24.60;79.60
47857;DHT22;33618;49.972;8.242;2023-07-31T13:45:05;24.50;79.00
47857;DHT22;33618;49.972;8.242;2023-07-31T13:47:33;24.40;79.70
47857;DHT22;33618;49.972;8.242;2023-07-31T13:50:01;24.40;79.80
47857;DHT22;33618;49.972;8.242;2023-07-31T13:52:28;24.50;80.80
47857;DHT22;33618;49.972;8.242;2023-07-31T13:54:55;24.40;80.00
47857;DHT22;33618;49.972;8.242;2023-07-31T13:57:22;24.10;80.00
47857;DHT22;33618;49.972;8.242;2023-07-31T13:59:50;23.70;80.80
47857;DHT22;33618;49.972;8.242;2023-07-31T14:02:17;23.50;81.30
47857;DHT22;33618;49.972;8.242;2023-07-31T14:04:44;23.40;81.30
47857;DHT22;33618;49.972;8.242;2023-07-31T14:07:11;23.30;81.80
47857;DHT22;33618;49.972;8.242;2023-07-31T14:09:38;23.30;81.90
47857;DHT22;33618;49.972;8.242;2023-07-31T14:12:05;23.10;81.80
47857;DHT22;33618;49.972;8.242;2023-07-31T14:14:32;23.10;82.30
47857;DHT22;33618;49.972;8.242;2023-07-31T14:17:01;23.20;82.50
47857;DHT22;33618;49.972;8.242;2023-07-31T14:19:28;23.20;82.60
47857;DHT22;33618;49.972;8.242;2023-07-31T14:21:58;23.20;82.20
47857;DHT22;33618;49.972;8.242;2023-07-31T14:24:37;23.30;82.20
47857;DHT22;33618;49.972;8.242;2023-07-31T14:27:04;23.30;82.30
47857;DHT22;33618;49.972;8.242;2023-07-31T14:29:31;23.40;82.50
47857;DHT22;33618;49.972;8.242;2023-07-31T14:31:58;23.50;82.50
47857;DHT22;33618;49.972;8.242;2023-07-31T14:34:27;23.40;82.40
47857;DHT22;33618;49.972;8.242;2023-07-31T14:36:53;23.50;82.10
47857;DHT22;33618;49.972;8.242;2023-07-31T14:39:20;23.40;81.80
47857;DHT22;33618;49.972;8.242;2023-07-31T14:41:47;23.30;82.10
47857;DHT22;33618;49.972;8.242;2023-07-31T14:44:15;23.40;82.20
47857;DHT22;33618;49.972;8.242;2023-07-31T14:46:42;23.40;81.90
47857;DHT22;33618;49.972;8.242;2023-07-31T14:49:09;23.30;81.80
47857;DHT22;33618;49.972;8.242;2023-07-31T14:51:36;23.20;82.00
47857;DHT22;33618;49.972;8.242;2023-07-31T14:54:03;23.30;81.80
47857;DHT22;33618;49.972;8.242;2023-07-31T14:56:30;23.20;82.00
47857;DHT22;33618;49.972;8.242;2023-07-31T14:58:57;23.20;82.20
47857;DHT22;33618;49.972;8.242;2023-07-31T15:01:24;23.20;82.50
47857;DHT22;33618;49.972;8.242;2023-07-31T15:03:51;23.10;82.30
47857;DHT22;33618;49.972;8.242;2023-07-31T15:06:18;23.00;82.60
47857;DHT22;33618;49.972;8.242;2023-07-31T15:08:45;22.90;83.00
47857;DHT22;33618;49.972;8.242;2023-07-31T15:11:12;23.00;82.90
47857;DHT22;33618;49.972;8.242;2023-07-31T15:13:39;22.90;82.80
47857;DHT22;33618;49.972;8.242;2023-07-31T15:16:06;23.00;82.20
47857;DHT22;33618;49.972;8.242;2023-07-31T15:18:33;22.90;81.80
47857;DHT22;33618;49.972;8.242;2023-07-31T15:21:00;22.70;81.90
47857;DHT22;33618;49.972;8.242;2023-07-31T15:23:27;22.70;81.70
47857;DHT22;33618;49.972;8.242;2023-07-31T15:25:54;22.70;82.30
47857;DHT22;33618;49.972;8.242;2023-07-31T15:28:21;22.60;82.10
47857;DHT22;33618;49.972;8.242;2023-07-31T15:30:48;22.60;81.80
47857;DHT22;33618;49.972;8.242;2023-07-31T15:33:15;22.40;82.10
47857;DHT22;33618;49.972;8.242;2023-07-31T15:35:42;22.40;82.90
47857;DHT22;33618;49.972;8.242;2023-07-31T15:38:10;22.40;83.30
47857;DHT22;33618;49.972;8.242;2023-07-31T15:40:38;22.40;83.60
47857;DHT22;33618;49.972;8.242;2023-07-31T15:43:05;22.40;83.50
47857;DHT22;33618;49.972;8.242;2023-07-31T15:45:32;22.40;83.90
47857;DHT22;33618;49.972;8.242;2023-07-31T15:47:59;22.50;83.30
47857;DHT22;33618;49.972;8.242;2023-07-31T15:50:26;22.30;83.20
47857;DHT22;33618;49.972;8.242;2023-07-31T15:52:53;22.30;83.10
47857;DHT22;33618;49.972;8.242;2023-07-31T15:55:20;22.20;83.20
47857;DHT22;33618;49.972;8.242;2023-07-31T15:57:48;22.20;83.40
47857;DHT22;33618;49.972;8.242;2023-07-31T16:00:15;22.30;83.30
47857;DHT22;33618;49.972;8.242;2023-07-31T16:02:43;22.20;83.10
47857;DHT22;33618;49.972;8.242;2023-07-31T16:05:13;22.30;83.10
47857;DHT22;33618;49.972;8.242;2023-07-31T16:07:40;22.30;83.70
47857;DHT22;33618;49.972;8.242;2023-07-31T16:10:08;22.30;83.50
47857;DHT22;33618;49.972;8.242;2023-07-31T16:12:35;22.20;83.40
47857;DHT22;33618;49.972;8.242;2023-07-31T16:15:03;22.20;83.80
47857;DHT22;33618;49.972;8.242;2023-07-31T16:17:29;22.20;83.60
47857;DHT22;33618;49.972;8.242;2023-07-31T16:19:57;22.20;83.90
47857;DHT22;33618;49.972;8.242;2023-07-31T16:22:23;22.10;84.60
47857;DHT22;33618;49.972;8.242;2023-07-31T16:24:51;22.10;84.60
47857;DHT22;33618;49.972;8.242;2023-07-31T16:27:17;22.00;85.00
47857;DHT22;33618;49.972;8.242;2023-07-31T16:29:46;22.00;84.70
47857;DHT22;33618;49.972;8.242;2023-07-31T16:32:13;21.90;84.90
47857;DHT22;33618;49.972;8.242;2023-07-31T16:34:39;21.80;85.30
47857;DHT22;33618;49.972;8.242;2023-07-31T16:37:06;21.80;85.50